sensor_id;sensor_type;location;lat;lon;timestamp;P1;durP1;ratioP1;P2;durP2;ratioP2
2998;SDS011;1509;51.964;7.628;2022-07-12T00:01:29;6.53;;;3.93;;
2998;SDS011;1509;51.964;7.628;2022-07-12T00:03:55;4.63;;;4.10;;
2998;SDS011;1509;51.964;7.628;2022-07-12T00:06:21;4.67;;;4.20;;
2998;SDS011;1509;51.964;7.628;2022-07-12T00:08:47;4.50;;;3.67;;
2998;SDS011;1509;51.964;7.628;2022-07-12T00:11:12;4.60;;;4.17;;
2998;SDS011;1509;51.964;7.628;2022-07-12T00:13:38;7.00;;;4.43;;
2998;SDS011;1509;51.964;7.628;2022-07-12T00:16:04;4.33;;;3.93;;
2998;SDS011;1509;51.964;7.628;2022-07-12T00:18:29;5.30;;;4.10;;
2998;SDS011;1509;51.964;7.628;2022-07-12T00:20:55;4.97;;;4.00;;
2998;SDS011;1509;51.964;7.628;2022-07-12T00:23:21;4.13;;;3.70;;
2998;SDS011;1509;51.964;7.628;2022-07-12T00:25:46;4.83;;;3.50;;
2998;SDS011;1509;51.964;7.628;2022-07-12T00:28:12;4.90;;;3.80;;
2998;SDS011;1509;51.964;7.628;2022-07-12T00:30:38;3.90;;;3.40;;
2998;SDS011;1509;51.964;7.628;2022-07-12T00:33:03;4.33;;;3.50;;
2998;SDS011;1509;51.964;7.628;2022-07-12T00:35:29;3.90;;;3.33;;
2998;SDS011;1509;51.964;7.628;2022-07-12T00:37:54;3.90;;;3.43;;
2998;SDS011;1509;51.964;7.628;2022-07-12T00:40:20;4.07;;;3.20;;
2998;SDS011;1509;51.964;7.628;2022-07-12T00:42:46;3.57;;;2.97;;
2998;SDS011;1509;51.964;7.628;2022-07-12T00:45:12;3.70;;;3.23;;
2998;SDS011;1509;51.964;7.628;2022-07-12T00:47:39;5.80;;;4.20;;
2998;SDS011;1509;51.964;7.628;2022-07-12T00:50:15;3.53;;;3.23;;
2998;SDS011;1509;51.964;7.628;2022-07-12T00:52:43;4.53;;;3.73;;
2998;SDS011;1509;51.964;7.628;2022-07-12T00:55:10;4.10;;;3.10;;
2998;SDS011;1509;51.964;7.628;2022-07-12T00:57:36;4.57;;;3.70;;
2998;SDS011;1509;51.964;7.628;2022-07-12T01:00:08;5.20;;;3.90;;
2998;SDS011;1509;51.964;7.628;2022-07-12T01:02:36;4.03;;;3.40;;
2998;SDS011;1509;51.964;7.628;2022-07-12T01:05:03;6.60;;;4.10;;
2998;SDS011;1509;51.964;7.628;2022-07-12T01:07:30;6.87;;;3.90;;
2998;SDS011;1509;51.964;7.628;2022-07-12T01:09:56;4.40;;;3.63;;
2998;SDS011;1509;51.964;7.628;2022-07-12T01:12:23;8.53;;;3.90;;
2998;SDS011;1509;51.964;7.628;2022-07-12T01:14:50;4.50;;;3.57;;
2998;SDS011;1509;51.964;7.628;2022-07-12T01:17:17;4.80;;;3.90;;
2998;SDS011;1509;51.964;7.628;2022-07-12T01:19:45;4.77;;;3.87;;
2998;SDS011;1509;51.964;7.628;2022-07-12T01:22:11;3.83;;;3.43;;
2998;SDS011;1509;51.964;7.628;2022-07-12T01:24:42;3.87;;;3.47;;
2998;SDS011;1509;51.964;7.628;2022-07-12T01:27:09;4.30;;;3.90;;
2998;SDS011;1509;51.964;7.628;2022-07-12T01:29:35;5.33;;;3.90;;
2998;SDS011;1509;51.964;7.628;2022-07-12T01:32:01;4.20;;;3.80;;
2998;SDS011;1509;51.964;7.628;2022-07-12T01:34:49;4.67;;;3.80;;
2998;SDS011;1509;51.964;7.628;2022-07-12T01:37:16;3.90;;;3.27;;
2998;SDS011;1509;51.964;7.628;2022-07-12T01:39:42;3.60;;;3.27;;
2998;SDS011;1509;51.964;7.628;2022-07-12T01:42:09;4.73;;;3.40;;
2998;SDS011;1509;51.964;7.628;2022-07-12T01:44:34;6.13;;;3.63;;
2998;SDS011;1509;51.964;7.628;2022-07-12T01:47:00;4.50;;;4.00;;
2998;SDS011;1509;51.964;7.628;2022-07-12T01:49:26;4.30;;;3.70;;
2998;SDS011;1509;51.964;7.628;2022-07-12T01:51:54;5.07;;;3.93;;
2998;SDS011;1509;51.964;7.628;2022-07-12T01:54:20;5.40;;;3.77;;
2998;SDS011;1509;51.964;7.628;2022-07-12T01:56:49;4.67;;;4.10;;
2998;SDS011;1509;51.964;7.628;2022-07-12T01:59:14;3.67;;;3.30;;
2998;SDS011;1509;51.964;7.628;2022-07-12T02:01:40;5.20;;;4.30;;
2998;SDS011;1509;51.964;7.628;2022-07-12T02:04:07;4.67;;;4.07;;
2998;SDS011;1509;51.964;7.628;2022-07-12T02:06:33;5.87;;;4.97;;
2998;SDS011;1509;51.964;7.628;2022-07-12T02:08:59;5.80;;;4.20;;
2998;SDS011;1509;51.964;7.628;2022-07-12T02:11:24;5.60;;;4.20;;
2998;SDS011;1509;51.964;7.628;2022-07-12T02:13:50;6.30;;;4.57;;
2998;SDS011;1509;51.964;7.628;2022-07-12T02:16:16;4.73;;;4.33;;
2998;SDS011;1509;51.964;7.628;2022-07-12T02:18:42;5.50;;;4.40;;
2998;SDS011;1509;51.964;7.628;2022-07-12T02:21:07;7.10;;;4.73;;
2998;SDS011;1509;51.964;7.628;2022-07-12T02:23:33;5.60;;;4.53;;
2998;SDS011;1509;51.964;7.628;2022-07-12T02:25:59;5.80;;;4.43;;
2998;SDS011;1509;51.964;7.628;2022-07-12T02:28:24;6.17;;;5.30;;
2998;SDS011;1509;51.964;7.628;2022-07-12T02:30:50;6.07;;;4.63;;
2998;SDS011;1509;51.964;7.628;2022-07-12T02:33:15;4.83;;;4.33;;
2998;SDS011;1509;51.964;7.628;2022-07-12T02:35:41;5.40;;;4.60;;
2998;SDS011;1509;51.964;7.628;2022-07-12T02:38:08;5.63;;;5.00;;
2998;SDS011;1509;51.964;7.628;2022-07-12T02:40:33;5.80;;;5.20;;
2998;SDS011;1509;51.964;7.628;2022-07-12T02:43:28;5.90;;;4.60;;
2998;SDS011;1509;51.964;7.628;2022-07-12T02:45:55;6.50;;;4.60;;
2998;SDS011;1509;51.964;7.628;2022-07-12T02:48:31;5.30;;;4.43;;
2998;SDS011;1509;51.964;7.628;2022-07-12T02:50:58;5.77;;;4.50;;
2998;SDS011;1509;51.964;7.628;2022-07-12T02:53:24;7.73;;;4.70;;
2998;SDS011;1509;51.964;7.628;2022-07-12T02:55:50;7.07;;;4.67;;
2998;SDS011;1509;51.964;7.628;2022-07-12T02:58:15;5.93;;;5.33;;
2998;SDS011;1509;51.964;7.628;2022-07-12T03:00:41;5.67;;;5.07;;
2998;SDS011;1509;51.964;7.628;2022-07-12T03:03:09;5.70;;;5.17;;
2998;SDS011;1509;51.964;7.628;2022-07-12T03:05:35;6.60;;;5.90;;
2998;SDS011;1509;51.964;7.628;2022-07-12T03:08:02;6.13;;;5.00;;
2998;SDS011;1509;51.964;7.628;2022-07-12T03:10:28;5.00;;;4.50;;
2998;SDS011;1509;51.964;7.628;2022-07-12T03:12:54;5.77;;;4.60;;
2998;SDS011;1509;51.964;7.628;2022-07-12T03:15:19;7.03;;;5.47;;
2998;SDS011;1509;51.964;7.628;2022-07-12T03:17:45;6.80;;;5.43;;
2998;SDS011;1509;51.964;7.628;2022-07-12T03:20:11;5.47;;;4.30;;
2998;SDS011;1509;51.964;7.628;2022-07-12T03:22:39;6.63;;;5.27;;
2998;SDS011;1509;51.964;7.628;2022-07-12T03:25:13;6.47;;;5.13;;
2998;SDS011;1509;51.964;7.628;2022-07-12T03:27:39;6.97;;;4.90;;
2998;SDS011;1509;51.964;7.628;2022-07-12T03:30:06;6.50;;;5.20;;
2998;SDS011;1509;51.964;7.628;2022-07-12T03:32:32;7.10;;;5.80;;
2998;SDS011;1509;51.964;7.628;2022-07-12T03:34:58;7.97;;;6.37;;
2998;SDS011;1509;51.964;7.628;2022-07-12T03:37:23;8.10;;;5.97;;
2998;SDS011;1509;51.964;7.628;2022-07-12T03:39:49;8.97;;;6.03;;
2998;SDS011;1509;51.964;7.628;2022-07-12T03:42:15;7.10;;;5.23;;
2998;SDS011;1509;51.964;7.628;2022-07-12T03:44:40;6.63;;;6.00;;
2998;SDS011;1509;51.964;7.628;2022-07-12T03:47:06;8.93;;;5.90;;
2998;SDS011;1509;51.964;7.628;2022-07-12T03:49:31;5.83;;;4.53;;
2998;SDS011;1509;51.964;7.628;2022-07-12T03:51:57;6.30;;;5.10;;
2998;SDS011;1509;51.964;7.628;2022-07-12T03:54:23;7.40;;;5.23;;
2998;SDS011;1509;51.964;7.628;2022-07-12T03:56:49;7.60;;;6.20;;
2998;SDS011;1509;51.964;7.628;2022-07-12T03:59:33;6.40;;;5.50;;
2998;SDS011;1509;51.964;7.628;2022-07-12T04:01:59;11.77;;;6.30;;
2998;SDS011;1509;51.964;7.628;2022-07-12T04:04:26;9.87;;;6.80;;
2998;SDS011;1509;51.964;7.628;2022-07-12T04:06:52;6.70;;;5.90;;
2998;SDS011;1509;51.964;7.628;2022-07-12T04:09:18;6.13;;;5.53;;
2998;SDS011;1509;51.964;7.628;2022-07-12T04:11:44;7.33;;;6.63;;
2998;SDS011;1509;51.964;7.628;2022-07-12T04:14:09;8.17;;;7.00;;
2998;SDS011;1509;51.964;7.628;2022-07-12T04:16:35;8.90;;;7.20;;
2998;SDS011;1509;51.964;7.628;2022-07-12T04:19:01;8.77;;;6.60;;
2998;SDS011;1509;51.964;7.628;2022-07-12T04:21:27;7.67;;;6.83;;
2998;SDS011;1509;51.964;7.628;2022-07-12T04:23:52;6.80;;;6.10;;
2998;SDS011;1509;51.964;7.628;2022-07-12T04:26:18;8.57;;;6.77;;
2998;SDS011;1509;51.964;7.628;2022-07-12T04:28:44;7.97;;;6.90;;
2998;SDS011;1509;51.964;7.628;2022-07-12T04:31:09;9.20;;;7.23;;
2998;SDS011;1509;51.964;7.628;2022-07-12T04:33:35;10.00;;;7.37;;
2998;SDS011;1509;51.964;7.628;2022-07-12T04:36:01;9.43;;;7.77;;
2998;SDS011;1509;51.964;7.628;2022-07-12T04:38:27;8.03;;;7.23;;
2998;SDS011;1509;51.964;7.628;2022-07-12T04:40:52;7.93;;;6.97;;
2998;SDS011;1509;51.964;7.628;2022-07-12T04:43:18;7.70;;;6.90;;
2998;SDS011;1509;51.964;7.628;2022-07-12T04:45:44;8.87;;;6.93;;
2998;SDS011;1509;51.964;7.628;2022-07-12T04:48:10;9.50;;;8.20;;
2998;SDS011;1509;51.964;7.628;2022-07-12T04:50:36;8.93;;;7.40;;
2998;SDS011;1509;51.964;7.628;2022-07-12T04:53:02;10.40;;;7.60;;
2998;SDS011;1509;51.964;7.628;2022-07-12T04:55:28;7.60;;;6.67;;
2998;SDS011;1509;51.964;7.628;2022-07-12T04:57:53;10.53;;;7.33;;
2998;SDS011;1509;51.964;7.628;2022-07-12T05:00:19;8.60;;;7.27;;
2998;SDS011;1509;51.964;7.628;2022-07-12T05:02:45;7.70;;;6.83;;
2998;SDS011;1509;51.964;7.628;2022-07-12T05:05:11;8.87;;;6.80;;
2998;SDS011;1509;51.964;7.628;2022-07-12T05:07:36;9.30;;;7.53;;
2998;SDS011;1509;51.964;7.628;2022-07-12T05:10:02;7.50;;;6.70;;
2998;SDS011;1509;51.964;7.628;2022-07-12T05:12:28;11.47;;;7.77;;
2998;SDS011;1509;51.964;7.628;2022-07-12T05:14:53;8.97;;;8.03;;
2998;SDS011;1509;51.964;7.628;2022-07-12T05:17:19;9.30;;;7.43;;
2998;SDS011;1509;51.964;7.628;2022-07-12T05:19:45;11.60;;;7.23;;
2998;SDS011;1509;51.964;7.628;2022-07-12T05:22:10;9.97;;;7.30;;
2998;SDS011;1509;51.964;7.628;2022-07-12T05:24:36;8.13;;;7.30;;
2998;SDS011;1509;51.964;7.628;2022-07-12T05:27:01;9.57;;;7.50;;
2998;SDS011;1509;51.964;7.628;2022-07-12T05:29:27;10.53;;;8.30;;
2998;SDS011;1509;51.964;7.628;2022-07-12T05:31:56;9.30;;;7.23;;
2998;SDS011;1509;51.964;7.628;2022-07-12T05:34:22;7.30;;;6.60;;
2998;SDS011;1509;51.964;7.628;2022-07-12T05:36:48;13.00;;;6.80;;
2998;SDS011;1509;51.964;7.628;2022-07-12T05:39:14;9.63;;;7.57;;
2998;SDS011;1509;51.964;7.628;2022-07-12T05:41:39;10.47;;;8.27;;
2998;SDS011;1509;51.964;7.628;2022-07-12T05:44:05;9.17;;;7.43;;
2998;SDS011;1509;51.964;7.628;2022-07-12T05:46:31;9.90;;;7.43;;
2998;SDS011;1509;51.964;7.628;2022-07-12T05:48:57;10.03;;;7.40;;
2998;SDS011;1509;51.964;7.628;2022-07-12T05:51:22;10.17;;;7.20;;
2998;SDS011;1509;51.964;7.628;2022-07-12T05:54:06;9.77;;;7.20;;
2998;SDS011;1509;51.964;7.628;2022-07-12T05:56:32;8.00;;;6.97;;
2998;SDS011;1509;51.964;7.628;2022-07-12T05:58:57;7.97;;;6.77;;
2998;SDS011;1509;51.964;7.628;2022-07-12T06:01:23;8.97;;;7.47;;
2998;SDS011;1509;51.964;7.628;2022-07-12T06:03:49;8.73;;;7.13;;
2998;SDS011;1509;51.964;7.628;2022-07-12T06:06:15;7.27;;;6.30;;
2998;SDS011;1509;51.964;7.628;2022-07-12T06:08:40;9.07;;;6.50;;
2998;SDS011;1509;51.964;7.628;2022-07-12T06:11:06;8.17;;;6.73;;
2998;SDS011;1509;51.964;7.628;2022-07-12T06:13:32;8.63;;;6.93;;
2998;SDS011;1509;51.964;7.628;2022-07-12T06:15:58;7.50;;;6.20;;
2998;SDS011;1509;51.964;7.628;2022-07-12T06:18:24;6.87;;;6.17;;
2998;SDS011;1509;51.964;7.628;2022-07-12T06:20:50;7.30;;;6.00;;
2998;SDS011;1509;51.964;7.628;2022-07-12T06:23:16;14.30;;;7.37;;
2998;SDS011;1509;51.964;7.628;2022-07-12T06:25:42;8.30;;;5.93;;
2998;SDS011;1509;51.964;7.628;2022-07-12T06:28:08;7.17;;;5.50;;
2998;SDS011;1509;51.964;7.628;2022-07-12T06:30:34;8.37;;;6.53;;
2998;SDS011;1509;51.964;7.628;2022-07-12T06:32:59;10.37;;;6.87;;
2998;SDS011;1509;51.964;7.628;2022-07-12T06:35:25;7.73;;;6.47;;
2998;SDS011;1509;51.964;7.628;2022-07-12T06:37:52;8.20;;;5.90;;
2998;SDS011;1509;51.964;7.628;2022-07-12T06:40:18;10.27;;;7.87;;
2998;SDS011;1509;51.964;7.628;2022-07-12T06:42:43;6.00;;;5.20;;
2998;SDS011;1509;51.964;7.628;2022-07-12T06:45:09;7.57;;;5.53;;
2998;SDS011;1509;51.964;7.628;2022-07-12T06:47:35;7.13;;;6.10;;
2998;SDS011;1509;51.964;7.628;2022-07-12T06:50:02;6.63;;;5.10;;
2998;SDS011;1509;51.964;7.628;2022-07-12T06:52:28;6.10;;;4.70;;
2998;SDS011;1509;51.964;7.628;2022-07-12T06:54:54;7.07;;;5.40;;
2998;SDS011;1509;51.964;7.628;2022-07-12T06:57:20;6.63;;;5.70;;
2998;SDS011;1509;51.964;7.628;2022-07-12T06:59:45;6.27;;;4.57;;
2998;SDS011;1509;51.964;7.628;2022-07-12T07:02:11;5.17;;;4.63;;
2998;SDS011;1509;51.964;7.628;2022-07-12T07:04:37;5.70;;;4.27;;
2998;SDS011;1509;51.964;7.628;2022-07-12T07:07:02;7.30;;;4.90;;
2998;SDS011;1509;51.964;7.628;2022-07-12T07:09:31;5.27;;;4.67;;
2998;SDS011;1509;51.964;7.628;2022-07-12T07:11:56;5.87;;;4.30;;
2998;SDS011;1509;51.964;7.628;2022-07-12T07:14:22;4.60;;;4.13;;
2998;SDS011;1509;51.964;7.628;2022-07-12T07:16:49;4.37;;;3.17;;
2998;SDS011;1509;51.964;7.628;2022-07-12T07:19:17;5.00;;;4.50;;
2998;SDS011;1509;51.964;7.628;2022-07-12T07:21:43;4.93;;;4.20;;
2998;SDS011;1509;51.964;7.628;2022-07-12T07:24:09;4.77;;;4.13;;
2998;SDS011;1509;51.964;7.628;2022-07-12T07:26:35;6.20;;;4.10;;
2998;SDS011;1509;51.964;7.628;2022-07-12T07:29:01;5.20;;;3.50;;
2998;SDS011;1509;51.964;7.628;2022-07-12T07:31:45;6.70;;;4.77;;
2998;SDS011;1509;51.964;7.628;2022-07-12T07:34:11;5.70;;;4.90;;
2998;SDS011;1509;51.964;7.628;2022-07-12T07:36:37;6.60;;;4.70;;
2998;SDS011;1509;51.964;7.628;2022-07-12T07:39:02;5.30;;;3.80;;
2998;SDS011;1509;51.964;7.628;2022-07-12T07:41:28;5.13;;;4.03;;
2998;SDS011;1509;51.964;7.628;2022-07-12T07:43:54;4.90;;;4.40;;
2998;SDS011;1509;51.964;7.628;2022-07-12T07:46:19;4.87;;;4.00;;
2998;SDS011;1509;51.964;7.628;2022-07-12T07:48:45;4.00;;;3.60;;
2998;SDS011;1509;51.964;7.628;2022-07-12T07:51:11;5.00;;;3.83;;
2998;SDS011;1509;51.964;7.628;2022-07-12T07:53:36;6.40;;;4.33;;
2998;SDS011;1509;51.964;7.628;2022-07-12T07:56:02;4.37;;;3.83;;
2998;SDS011;1509;51.964;7.628;2022-07-12T07:58:27;12.87;;;3.60;;
2998;SDS011;1509;51.964;7.628;2022-07-12T08:00:53;5.93;;;3.60;;
2998;SDS011;1509;51.964;7.628;2022-07-12T08:03:19;6.50;;;3.60;;
2998;SDS011;1509;51.964;7.628;2022-07-12T08:05:47;8.10;;;5.10;;
2998;SDS011;1509;51.964;7.628;2022-07-12T08:08:13;6.90;;;3.50;;
2998;SDS011;1509;51.964;7.628;2022-07-12T08:10:39;3.53;;;3.23;;
2998;SDS011;1509;51.964;7.628;2022-07-12T08:13:05;4.60;;;3.00;;
2998;SDS011;1509;51.964;7.628;2022-07-12T08:15:31;3.90;;;3.40;;
2998;SDS011;1509;51.964;7.628;2022-07-12T08:17:56;5.57;;;4.20;;
2998;SDS011;1509;51.964;7.628;2022-07-12T08:20:22;3.90;;;2.60;;
2998;SDS011;1509;51.964;7.628;2022-07-12T08:22:49;3.67;;;2.87;;
2998;SDS011;1509;51.964;7.628;2022-07-12T08:25:14;3.70;;;2.20;;
2998;SDS011;1509;51.964;7.628;2022-07-12T08:27:41;3.13;;;2.10;;
2998;SDS011;1509;51.964;7.628;2022-07-12T08:30:07;3.37;;;2.33;;
2998;SDS011;1509;51.964;7.628;2022-07-12T08:32:33;2.87;;;2.03;;
2998;SDS011;1509;51.964;7.628;2022-07-12T08:34:59;3.17;;;1.80;;
2998;SDS011;1509;51.964;7.628;2022-07-12T08:37:25;3.07;;;2.60;;
2998;SDS011;1509;51.964;7.628;2022-07-12T08:39:51;2.17;;;1.90;;
2998;SDS011;1509;51.964;7.628;2022-07-12T08:42:16;2.30;;;2.00;;
2998;SDS011;1509;51.964;7.628;2022-07-12T08:44:55;2.37;;;1.87;;
2998;SDS011;1509;51.964;7.628;2022-07-12T08:47:21;3.70;;;1.80;;
2998;SDS011;1509;51.964;7.628;2022-07-12T08:52:42;2.37;;;2.00;;
2998;SDS011;1509;51.964;7.628;2022-07-12T08:55:42;2.67;;;1.90;;
2998;SDS011;1509;51.964;7.628;2022-07-12T08:58:02;3.97;;;1.63;;
2998;SDS011;1509;51.964;7.628;2022-07-12T09:00:30;2.63;;;1.97;;
2998;SDS011;1509;51.964;7.628;2022-07-12T09:03:01;2.70;;;2.10;;
2998;SDS011;1509;51.964;7.628;2022-07-12T09:05:29;2.80;;;1.90;;
2998;SDS011;1509;51.964;7.628;2022-07-12T09:10:35;2.87;;;1.60;;
2998;SDS011;1509;51.964;7.628;2022-07-12T09:13:23;2.57;;;1.93;;
2998;SDS011;1509;51.964;7.628;2022-07-12T09:16:17;3.90;;;2.60;;
2998;SDS011;1509;51.964;7.628;2022-07-12T09:18:44;2.53;;;2.20;;
2998;SDS011;1509;51.964;7.628;2022-07-12T09:21:20;3.43;;;2.20;;
2998;SDS011;1509;51.964;7.628;2022-07-12T09:23:54;2.60;;;1.80;;
2998;SDS011;1509;51.964;7.628;2022-07-12T09:26:29;10.77;;;8.03;;
2998;SDS011;1509;51.964;7.628;2022-07-12T09:29:08;2.60;;;1.50;;
2998;SDS011;1509;51.964;7.628;2022-07-12T09:31:45;2.57;;;1.70;;
2998;SDS011;1509;51.964;7.628;2022-07-12T09:34:32;2.33;;;1.57;;
2998;SDS011;1509;51.964;7.628;2022-07-12T09:37:16;1.80;;;1.50;;
2998;SDS011;1509;51.964;7.628;2022-07-12T09:39:42;1.83;;;1.60;;
2998;SDS011;1509;51.964;7.628;2022-07-12T09:42:09;2.00;;;1.60;;
2998;SDS011;1509;51.964;7.628;2022-07-12T09:44:35;1.40;;;1.10;;
2998;SDS011;1509;51.964;7.628;2022-07-12T09:47:02;2.20;;;1.40;;
2998;SDS011;1509;51.964;7.628;2022-07-12T09:49:28;1.73;;;1.20;;
2998;SDS011;1509;51.964;7.628;2022-07-12T09:51:55;1.97;;;1.43;;
2998;SDS011;1509;51.964;7.628;2022-07-12T09:54:24;2.20;;;1.70;;
2998;SDS011;1509;51.964;7.628;2022-07-12T09:56:52;1.90;;;1.20;;
2998;SDS011;1509;51.964;7.628;2022-07-12T09:59:21;3.03;;;1.93;;
2998;SDS011;1509;51.964;7.628;2022-07-12T10:01:49;2.70;;;1.33;;
2998;SDS011;1509;51.964;7.628;2022-07-12T10:04:20;1.97;;;1.30;;
2998;SDS011;1509;51.964;7.628;2022-07-12T10:06:48;1.83;;;1.20;;
2998;SDS011;1509;51.964;7.628;2022-07-12T10:09:15;2.43;;;1.30;;
2998;SDS011;1509;51.964;7.628;2022-07-12T10:11:41;2.07;;;1.33;;
2998;SDS011;1509;51.964;7.628;2022-07-12T10:14:11;2.23;;;1.10;;
2998;SDS011;1509;51.964;7.628;2022-07-12T10:16:41;1.60;;;1.20;;
2998;SDS011;1509;51.964;7.628;2022-07-12T10:19:26;4.30;;;1.07;;
2998;SDS011;1509;51.964;7.628;2022-07-12T10:21:58;2.20;;;1.10;;
2998;SDS011;1509;51.964;7.628;2022-07-12T10:24:45;1.30;;;0.93;;
2998;SDS011;1509;51.964;7.628;2022-07-12T10:29:43;2.10;;;1.20;;
2998;SDS011;1509;51.964;7.628;2022-07-12T10:32:21;1.33;;;1.07;;
2998;SDS011;1509;51.964;7.628;2022-07-12T10:35:03;2.03;;;0.90;;
2998;SDS011;1509;51.964;7.628;2022-07-12T10:37:33;1.67;;;1.17;;
2998;SDS011;1509;51.964;7.628;2022-07-12T10:45:31;2.43;;;1.23;;
2998;SDS011;1509;51.964;7.628;2022-07-12T10:48:01;3.30;;;2.30;;
2998;SDS011;1509;51.964;7.628;2022-07-12T10:53:36;1.77;;;1.23;;
2998;SDS011;1509;51.964;7.628;2022-07-12T10:58:48;1.83;;;1.27;;
2998;SDS011;1509;51.964;7.628;2022-07-12T11:01:15;1.60;;;0.90;;
2998;SDS011;1509;51.964;7.628;2022-07-12T11:03:48;1.20;;;0.90;;
2998;SDS011;1509;51.964;7.628;2022-07-12T11:06:16;1.70;;;1.00;;
2998;SDS011;1509;51.964;7.628;2022-07-12T11:08:47;1.80;;;1.07;;
2998;SDS011;1509;51.964;7.628;2022-07-12T11:11:13;1.93;;;0.90;;
2998;SDS011;1509;51.964;7.628;2022-07-12T11:13:39;1.33;;;0.70;;
2998;SDS011;1509;51.964;7.628;2022-07-12T11:16:05;2.03;;;0.80;;
2998;SDS011;1509;51.964;7.628;2022-07-12T11:18:31;2.20;;;2.00;;
2998;SDS011;1509;51.964;7.628;2022-07-12T11:20:59;1.20;;;0.80;;
2998;SDS011;1509;51.964;7.628;2022-07-12T11:23:25;2.87;;;1.00;;
2998;SDS011;1509;51.964;7.628;2022-07-12T11:25:55;1.80;;;0.93;;
2998;SDS011;1509;51.964;7.628;2022-07-12T11:28:21;1.40;;;0.97;;
2998;SDS011;1509;51.964;7.628;2022-07-12T11:30:52;1.80;;;1.10;;
2998;SDS011;1509;51.964;7.628;2022-07-12T11:33:21;2.17;;;1.00;;
2998;SDS011;1509;51.964;7.628;2022-07-12T11:35:50;1.30;;;0.90;;
2998;SDS011;1509;51.964;7.628;2022-07-12T11:38:23;1.20;;;0.80;;
2998;SDS011;1509;51.964;7.628;2022-07-12T11:40:54;6.30;;;3.87;;
2998;SDS011;1509;51.964;7.628;2022-07-12T11:43:23;5.73;;;1.53;;
2998;SDS011;1509;51.964;7.628;2022-07-12T11:45:50;1.23;;;0.90;;
2998;SDS011;1509;51.964;7.628;2022-07-12T11:48:17;1.53;;;1.00;;
2998;SDS011;1509;51.964;7.628;2022-07-12T11:50:43;1.53;;;1.10;;
2998;SDS011;1509;51.964;7.628;2022-07-12T11:53:22;1.83;;;0.83;;
2998;SDS011;1509;51.964;7.628;2022-07-12T11:55:50;2.37;;;0.90;;
2998;SDS011;1509;51.964;7.628;2022-07-12T11:58:18;6.67;;;4.20;;
2998;SDS011;1509;51.964;7.628;2022-07-12T12:00:44;4.90;;;1.00;;
2998;SDS011;1509;51.964;7.628;2022-07-12T12:03:11;2.17;;;1.07;;
2998;SDS011;1509;51.964;7.628;2022-07-12T12:05:38;1.97;;;0.93;;
2998;SDS011;1509;51.964;7.628;2022-07-12T12:08:05;1.80;;;0.90;;
2998;SDS011;1509;51.964;7.628;2022-07-12T12:10:32;1.70;;;1.07;;
2998;SDS011;1509;51.964;7.628;2022-07-12T12:12:58;1.60;;;1.10;;
2998;SDS011;1509;51.964;7.628;2022-07-12T12:15:26;1.40;;;1.00;;
2998;SDS011;1509;51.964;7.628;2022-07-12T12:18:02;2.07;;;0.90;;
2998;SDS011;1509;51.964;7.628;2022-07-12T12:20:36;1.80;;;0.90;;
2998;SDS011;1509;51.964;7.628;2022-07-12T12:23:04;1.30;;;0.90;;
2998;SDS011;1509;51.964;7.628;2022-07-12T12:25:45;1.43;;;0.90;;
2998;SDS011;1509;51.964;7.628;2022-07-12T12:28:11;1.70;;;0.80;;
2998;SDS011;1509;51.964;7.628;2022-07-12T12:30:53;1.50;;;1.17;;
2998;SDS011;1509;51.964;7.628;2022-07-12T12:33:36;1.33;;;0.80;;
2998;SDS011;1509;51.964;7.628;2022-07-12T12:38:40;1.87;;;1.10;;
2998;SDS011;1509;51.964;7.628;2022-07-12T12:41:07;1.60;;;0.93;;
2998;SDS011;1509;51.964;7.628;2022-07-12T12:43:33;1.70;;;0.80;;
2998;SDS011;1509;51.964;7.628;2022-07-12T12:45:59;2.07;;;0.90;;
2998;SDS011;1509;51.964;7.628;2022-07-12T12:48:25;1.77;;;1.00;;
2998;SDS011;1509;51.964;7.628;2022-07-12T12:50:53;1.60;;;0.90;;
2998;SDS011;1509;51.964;7.628;2022-07-12T12:53:21;2.13;;;0.70;;
2998;SDS011;1509;51.964;7.628;2022-07-12T12:55:53;1.30;;;0.90;;
2998;SDS011;1509;51.964;7.628;2022-07-12T12:58:21;1.57;;;1.00;;
2998;SDS011;1509;51.964;7.628;2022-07-12T13:00:49;1.63;;;1.00;;
2998;SDS011;1509;51.964;7.628;2022-07-12T13:03:17;1.60;;;1.00;;
2998;SDS011;1509;51.964;7.628;2022-07-12T13:05:44;1.40;;;1.20;;
2998;SDS011;1509;51.964;7.628;2022-07-12T13:08:10;1.40;;;1.20;;
2998;SDS011;1509;51.964;7.628;2022-07-12T13:10:37;1.47;;;1.17;;
2998;SDS011;1509;51.964;7.628;2022-07-12T13:13:05;2.20;;;1.00;;
2998;SDS011;1509;51.964;7.628;2022-07-12T13:15:32;1.20;;;0.80;;
2998;SDS011;1509;51.964;7.628;2022-07-12T13:17:58;2.10;;;0.97;;
2998;SDS011;1509;51.964;7.628;2022-07-12T13:20:25;2.07;;;1.00;;
2998;SDS011;1509;51.964;7.628;2022-07-12T13:22:51;1.50;;;1.00;;
2998;SDS011;1509;51.964;7.628;2022-07-12T13:25:18;2.00;;;1.00;;
2998;SDS011;1509;51.964;7.628;2022-07-12T13:27:44;1.60;;;0.90;;
2998;SDS011;1509;51.964;7.628;2022-07-12T13:30:11;1.30;;;0.80;;
2998;SDS011;1509;51.964;7.628;2022-07-12T13:32:37;1.37;;;1.00;;
2998;SDS011;1509;51.964;7.628;2022-07-12T13:35:05;1.30;;;0.90;;
2998;SDS011;1509;51.964;7.628;2022-07-12T13:37:32;1.87;;;1.27;;
2998;SDS011;1509;51.964;7.628;2022-07-12T13:39:58;1.30;;;0.80;;
2998;SDS011;1509;51.964;7.628;2022-07-12T13:42:36;1.20;;;0.90;;
2998;SDS011;1509;51.964;7.628;2022-07-12T13:45:05;1.50;;;0.90;;
2998;SDS011;1509;51.964;7.628;2022-07-12T13:47:36;3.20;;;1.50;;
2998;SDS011;1509;51.964;7.628;2022-07-12T13:50:02;2.50;;;1.13;;
2998;SDS011;1509;51.964;7.628;2022-07-12T13:52:29;1.20;;;0.90;;
2998;SDS011;1509;51.964;7.628;2022-07-12T13:54:55;1.83;;;1.30;;
2998;SDS011;1509;51.964;7.628;2022-07-12T13:57:21;1.90;;;1.30;;
2998;SDS011;1509;51.964;7.628;2022-07-12T13:59:47;2.40;;;1.00;;
2998;SDS011;1509;51.964;7.628;2022-07-12T14:02:13;1.30;;;1.00;;
2998;SDS011;1509;51.964;7.628;2022-07-12T14:04:38;1.77;;;0.97;;
2998;SDS011;1509;51.964;7.628;2022-07-12T14:07:04;1.50;;;1.00;;
2998;SDS011;1509;51.964;7.628;2022-07-12T14:09:30;1.77;;;1.20;;
2998;SDS011;1509;51.964;7.628;2022-07-12T14:11:55;2.17;;;1.30;;
2998;SDS011;1509;51.964;7.628;2022-07-12T14:14:21;1.57;;;1.10;;
2998;SDS011;1509;51.964;7.628;2022-07-12T14:17:19;1.50;;;1.10;;
2998;SDS011;1509;51.964;7.628;2022-07-12T14:19:45;1.50;;;1.10;;
2998;SDS011;1509;51.964;7.628;2022-07-12T14:22:11;1.80;;;1.10;;
2998;SDS011;1509;51.964;7.628;2022-07-12T14:24:37;2.60;;;1.87;;
2998;SDS011;1509;51.964;7.628;2022-07-12T14:27:03;2.10;;;1.20;;
2998;SDS011;1509;51.964;7.628;2022-07-12T14:29:29;2.70;;;1.43;;
2998;SDS011;1509;51.964;7.628;2022-07-12T14:31:54;2.03;;;0.97;;
2998;SDS011;1509;51.964;7.628;2022-07-12T14:34:22;1.30;;;0.97;;
2998;SDS011;1509;51.964;7.628;2022-07-12T14:36:48;2.03;;;1.30;;
2998;SDS011;1509;51.964;7.628;2022-07-12T14:39:13;1.50;;;1.00;;
2998;SDS011;1509;51.964;7.628;2022-07-12T14:41:39;1.50;;;1.00;;
2998;SDS011;1509;51.964;7.628;2022-07-12T14:44:04;1.63;;;1.10;;
2998;SDS011;1509;51.964;7.628;2022-07-12T14:46:33;1.87;;;1.50;;
2998;SDS011;1509;51.964;7.628;2022-07-12T14:48:59;1.30;;;1.00;;
2998;SDS011;1509;51.964;7.628;2022-07-12T14:51:25;1.80;;;1.40;;
2998;SDS011;1509;51.964;7.628;2022-07-12T14:53:51;1.30;;;1.00;;
2998;SDS011;1509;51.964;7.628;2022-07-12T14:56:18;2.00;;;1.20;;
2998;SDS011;1509;51.964;7.628;2022-07-12T14:58:44;1.50;;;0.90;;
2998;SDS011;1509;51.964;7.628;2022-07-12T15:01:12;1.40;;;1.00;;
2998;SDS011;1509;51.964;7.628;2022-07-12T15:03:38;1.40;;;0.90;;
2998;SDS011;1509;51.964;7.628;2022-07-12T15:06:04;2.50;;;1.20;;
2998;SDS011;1509;51.964;7.628;2022-07-12T15:08:30;6.33;;;1.30;;
2998;SDS011;1509;51.964;7.628;2022-07-12T15:10:56;1.30;;;0.90;;
2998;SDS011;1509;51.964;7.628;2022-07-12T15:13:22;1.63;;;1.00;;
2998;SDS011;1509;51.964;7.628;2022-07-12T15:15:48;1.40;;;1.10;;
2998;SDS011;1509;51.964;7.628;2022-07-12T15:18:14;3.33;;;1.00;;
2998;SDS011;1509;51.964;7.628;2022-07-12T15:20:40;1.30;;;0.90;;
2998;SDS011;1509;51.964;7.628;2022-07-12T15:23:06;2.30;;;1.40;;
2998;SDS011;1509;51.964;7.628;2022-07-12T15:25:32;1.50;;;1.00;;
2998;SDS011;1509;51.964;7.628;2022-07-12T15:27:58;1.40;;;1.20;;
2998;SDS011;1509;51.964;7.628;2022-07-12T15:30:24;3.23;;;1.30;;
2998;SDS011;1509;51.964;7.628;2022-07-12T15:32:50;1.50;;;1.13;;
2998;SDS011;1509;51.964;7.628;2022-07-12T15:35:17;3.27;;;1.50;;
2998;SDS011;1509;51.964;7.628;2022-07-12T15:37:42;2.40;;;1.30;;
2998;SDS011;1509;51.964;7.628;2022-07-12T15:40:08;2.40;;;1.40;;